Terminal Aerodrome Forecast
Issued by NWS Cleveland, OH

Home | Current Version | Previous Version | Graphics & Text | Print | Product List | Glossary On
Versions: 1 2 3 4 5 6 7 8 9 10 11 12 13 14 15 16 17 18
000
FTUS41 KCLE 301700
TAFYNG
TAF
KYNG 301731Z 3018/3118 20012G18KT P6SM FEW100 SCT250
     FM310400 20009KT P6SM OVC100
     FM310900 21007KT 5SM -SHRA VCTS BKN035CB OVC100
     FM311200 21008KT 6SM -SHRA BKN030=

USA.gov is the U.S. government's official web portal to all federal, state and local government web resources and services.